createdAt,value
2019-05-18T00:01:39.432Z,5.67
2019-05-18T00:04:06.924Z,5.77
2019-05-18T00:06:34.676Z,4.90
2019-05-18T00:09:02.309Z,4.60
2019-05-18T00:11:29.666Z,4.13
2019-05-18T00:13:56.993Z,4.50
2019-05-18T00:16:24.350Z,5.20
2019-05-18T00:18:51.729Z,4.40
2019-05-18T00:21:19.751Z,4.90
2019-05-18T00:23:47.187Z,5.30
2019-05-18T00:26:14.559Z,4.47
2019-05-18T00:28:41.977Z,4.33
2019-05-18T00:31:09.294Z,4.10
2019-05-18T00:33:36.687Z,5.23
2019-05-18T00:36:04.306Z,3.60
2019-05-18T00:38:31.766Z,3.70
2019-05-18T00:40:59.096Z,3.90
2019-05-18T00:43:26.547Z,3.63
2019-05-18T00:45:53.909Z,3.70
2019-05-18T00:48:21.330Z,3.57
2019-05-18T00:50:48.722Z,5.17
2019-05-18T00:53:16.054Z,3.20
2019-05-18T00:55:43.514Z,3.20
2019-05-18T00:58:11.040Z,3.00
2019-05-18T01:00:39.314Z,3.10
2019-05-18T01:03:06.822Z,3.20
2019-05-18T01:05:37.449Z,3.20
2019-05-18T01:08:03.596Z,3.23
2019-05-18T01:10:30.946Z,3.30
2019-05-18T01:12:58.380Z,3.13
2019-05-18T01:15:25.786Z,3.20
2019-05-18T01:17:57.491Z,3.30
2019-05-18T01:20:22.547Z,3.47
2019-05-18T01:22:49.875Z,3.20
2019-05-18T01:25:17.266Z,2.80
2019-05-18T01:27:44.680Z,3.07
2019-05-18T01:30:12.682Z,3.20
2019-05-18T01:32:40.160Z,2.97
2019-05-18T01:35:08.107Z,2.90
2019-05-18T01:37:35.645Z,2.90
2019-05-18T01:40:03.678Z,3.10
2019-05-18T01:42:31.139Z,2.70
2019-05-18T01:44:58.513Z,2.83
2019-05-18T01:47:25.934Z,3.10
2019-05-18T01:49:53.370Z,3.00
2019-05-18T01:52:20.845Z,2.83
2019-05-18T01:54:48.248Z,2.90
2019-05-18T01:57:15.742Z,3.43
2019-05-18T01:59:43.136Z,2.90
2019-05-18T02:02:10.645Z,2.60
2019-05-18T02:04:38.109Z,2.93
2019-05-18T02:07:05.552Z,3.00
2019-05-18T02:09:33.059Z,2.93
2019-05-18T02:12:00.553Z,3.00
2019-05-18T02:14:27.975Z,2.93
2019-05-18T02:16:55.413Z,2.83
2019-05-18T02:19:24.860Z,2.70
2019-05-18T02:21:52.235Z,3.33
2019-05-18T02:24:19.696Z,2.70
2019-05-18T02:26:47.160Z,2.90
2019-05-18T02:29:14.542Z,2.90
2019-05-18T02:31:42.036Z,3.00
2019-05-18T02:34:09.582Z,2.70
2019-05-18T02:36:37.004Z,2.83
2019-05-18T02:39:05.758Z,3.00
2019-05-18T02:41:33.353Z,3.10
2019-05-18T02:44:00.875Z,3.10
2019-05-18T02:46:28.345Z,2.83
2019-05-18T02:48:55.775Z,3.17
2019-05-18T02:51:23.133Z,3.20
2019-05-18T02:53:50.490Z,3.10
2019-05-18T02:56:17.824Z,2.90
2019-05-18T02:58:45.171Z,3.20
2019-05-18T03:01:12.632Z,3.70
2019-05-18T03:03:40.130Z,3.30
2019-05-18T03:06:07.552Z,3.93
2019-05-18T03:08:35.061Z,3.70
2019-05-18T03:11:02.421Z,3.20
2019-05-18T03:13:29.963Z,3.70
2019-05-18T03:15:57.406Z,3.30
2019-05-18T03:18:24.919Z,3.50
2019-05-18T03:20:52.407Z,3.70
2019-05-18T03:23:19.841Z,3.60
2019-05-18T03:25:47.221Z,3.30
2019-05-18T03:28:14.721Z,3.83
2019-05-18T03:30:42.099Z,3.73
2019-05-18T03:33:09.629Z,3.10
2019-05-18T03:35:40.258Z,3.00
2019-05-18T03:38:07.763Z,3.10
2019-05-18T03:40:35.228Z,3.23
2019-05-18T03:43:02.829Z,3.30
2019-05-18T03:45:30.213Z,3.30
2019-05-18T03:47:57.638Z,3.30
2019-05-18T03:50:25.068Z,3.20
2019-05-18T03:52:52.597Z,3.23
2019-05-18T03:55:20.058Z,3.40
2019-05-18T03:57:47.506Z,2.93
2019-05-18T04:00:15.003Z,3.60
2019-05-18T04:02:42.281Z,3.00
2019-05-18T04:05:09.764Z,3.33
2019-05-18T04:07:37.255Z,3.00
2019-05-18T04:10:05.080Z,3.27
2019-05-18T04:12:32.541Z,3.43
2019-05-18T04:14:59.997Z,2.90
2019-05-18T04:17:27.491Z,3.07
2019-05-18T04:19:55.019Z,3.50
2019-05-18T04:22:22.492Z,3.27
2019-05-18T04:24:49.756Z,3.13
2019-05-18T04:27:17.263Z,3.20
2019-05-18T04:29:44.736Z,3.57
2019-05-18T04:32:12.147Z,3.13
2019-05-18T04:34:39.523Z,3.30
2019-05-18T04:37:06.950Z,2.97
2019-05-18T04:39:34.342Z,3.07
2019-05-18T04:42:01.855Z,3.03
2019-05-18T04:44:29.247Z,3.30
2019-05-18T04:46:56.637Z,3.30
2019-05-18T04:49:24.115Z,3.50
2019-05-18T04:51:51.605Z,3.30
2019-05-18T04:54:19.045Z,3.47
2019-05-18T04:56:46.601Z,3.70
2019-05-18T04:59:14.037Z,3.30
2019-05-18T05:01:41.544Z,3.50
2019-05-18T05:04:08.986Z,3.43
2019-05-18T05:06:36.356Z,3.40
2019-05-18T05:09:05.959Z,3.40
2019-05-18T05:11:33.417Z,3.27
2019-05-18T05:14:01.038Z,3.10
2019-05-18T05:16:28.446Z,3.50
2019-05-18T05:18:55.920Z,3.47
2019-05-18T05:21:23.348Z,3.13
2019-05-18T05:23:50.855Z,3.37
2019-05-18T05:26:18.283Z,3.63
2019-05-18T05:28:45.754Z,3.43
2019-05-18T05:31:13.240Z,3.53
2019-05-18T05:33:40.776Z,3.53
2019-05-18T05:36:08.137Z,3.80
2019-05-18T05:38:35.571Z,3.70
2019-05-18T05:41:02.930Z,3.70
2019-05-18T05:43:30.413Z,3.97
2019-05-18T05:45:57.823Z,3.77
2019-05-18T05:48:25.242Z,3.77
2019-05-18T05:50:52.750Z,3.70
2019-05-18T05:53:20.233Z,4.10
2019-05-18T05:55:47.768Z,3.90
2019-05-18T05:58:15.257Z,4.17
2019-05-18T06:00:42.635Z,5.07
2019-05-18T06:03:10.140Z,4.93
2019-05-18T06:05:37.613Z,4.17
2019-05-18T06:08:05.287Z,4.30
2019-05-18T06:10:33.679Z,4.60
2019-05-18T06:13:01.246Z,4.97
2019-05-18T06:15:28.691Z,5.00
2019-05-18T06:17:56.317Z,4.10
2019-05-18T06:20:23.805Z,4.30
2019-05-18T06:22:51.224Z,4.07
2019-05-18T06:25:18.673Z,4.00
2019-05-18T06:27:46.100Z,4.70
2019-05-18T06:30:14.615Z,4.50
2019-05-18T06:32:42.086Z,4.57
2019-05-18T06:35:09.662Z,4.83
2019-05-18T06:37:37.163Z,4.67
2019-05-18T06:40:05.007Z,4.30
2019-05-18T06:42:32.845Z,4.67
2019-05-18T06:45:00.303Z,5.03
2019-05-18T06:47:28.517Z,4.93
2019-05-18T06:49:56.033Z,5.00
2019-05-18T06:52:23.400Z,5.40
2019-05-18T06:54:50.832Z,5.83
2019-05-18T06:57:19.019Z,7.37
2019-05-18T06:59:46.610Z,5.00
2019-05-18T07:02:13.939Z,5.10
2019-05-18T07:04:47.348Z,5.23
2019-05-18T07:07:14.759Z,4.90
2019-05-18T07:09:42.142Z,5.57
2019-05-18T07:12:09.465Z,4.70
2019-05-18T07:14:36.755Z,4.30
2019-05-18T07:17:04.112Z,4.40
2019-05-18T07:19:31.645Z,4.90
2019-05-18T07:21:59.125Z,4.40
2019-05-18T07:24:26.651Z,4.20
2019-05-18T07:26:54.242Z,4.80
2019-05-18T07:29:21.755Z,4.50
2019-05-18T07:31:49.132Z,5.20
2019-05-18T07:34:16.478Z,4.57
2019-05-18T07:36:51.120Z,5.07
2019-05-18T07:39:24.565Z,5.27
2019-05-18T07:41:52.088Z,5.43
2019-05-18T07:44:20.478Z,5.27
2019-05-18T07:46:48.064Z,5.03
2019-05-18T07:49:15.458Z,5.00
2019-05-18T07:51:42.952Z,4.87
2019-05-18T07:54:10.575Z,4.40
2019-05-18T07:56:38.140Z,3.77
2019-05-18T07:59:05.906Z,4.70
2019-05-18T08:01:33.520Z,4.40
2019-05-18T08:04:01.008Z,4.67
2019-05-18T08:06:28.544Z,4.03
2019-05-18T08:08:55.937Z,4.43
2019-05-18T08:11:24.195Z,4.67
2019-05-18T08:13:51.708Z,4.27
2019-05-18T08:16:19.243Z,3.40
2019-05-18T08:18:51.711Z,3.97
2019-05-18T08:21:24.517Z,4.13
2019-05-18T08:23:52.063Z,4.27
2019-05-18T08:26:19.497Z,3.67
2019-05-18T08:28:46.850Z,3.70
2019-05-18T08:31:14.306Z,3.70
2019-05-18T08:33:41.858Z,3.30
2019-05-18T08:36:09.514Z,3.40
2019-05-18T08:38:36.975Z,3.30
2019-05-18T08:41:04.535Z,3.33
2019-05-18T08:43:35.669Z,4.13
2019-05-18T08:46:03.473Z,3.30
2019-05-18T08:48:31.345Z,3.67
2019-05-18T08:50:58.945Z,4.03
2019-05-18T08:53:26.484Z,4.13
2019-05-18T08:55:53.974Z,3.90
2019-05-18T08:58:21.508Z,3.93
2019-05-18T09:00:49.204Z,3.60
2019-05-18T09:03:16.726Z,3.93
2019-05-18T09:05:44.553Z,3.77
2019-05-18T09:08:11.991Z,3.80
2019-05-18T09:10:39.437Z,4.33
2019-05-18T09:13:26.399Z,3.97
2019-05-18T09:15:53.856Z,4.17
2019-05-18T09:18:21.218Z,3.90
2019-05-18T09:20:49.068Z,3.50
2019-05-18T09:23:17.547Z,4.30
2019-05-18T09:25:45.073Z,3.80
2019-05-18T09:28:12.519Z,4.00
2019-05-18T09:30:41.386Z,4.03
2019-05-18T09:33:09.107Z,3.87
2019-05-18T09:35:36.527Z,4.17
2019-05-18T09:38:05.970Z,3.90
2019-05-18T09:40:33.411Z,3.72
2019-05-18T09:43:00.972Z,3.98
2019-05-18T09:45:29.304Z,3.72
2019-05-18T09:47:56.683Z,3.62
2019-05-18T09:50:24.081Z,3.87
2019-05-18T09:52:51.458Z,3.87
2019-05-18T09:55:19.094Z,4.10
2019-05-18T09:57:46.664Z,4.42
2019-05-18T10:00:14.593Z,3.62
2019-05-18T10:02:46.652Z,3.77
2019-05-18T10:05:14.151Z,3.83
2019-05-18T10:07:41.613Z,4.05
2019-05-18T10:10:11.053Z,3.50
2019-05-18T10:12:38.651Z,4.00
2019-05-18T10:15:07.867Z,4.17
2019-05-18T10:17:35.602Z,3.80
2019-05-18T10:20:03.318Z,4.50
2019-05-18T10:22:30.763Z,3.67
2019-05-18T10:24:58.210Z,3.83
2019-05-18T10:27:25.662Z,3.77
2019-05-18T10:29:53.208Z,3.80
2019-05-18T10:32:20.722Z,3.92
2019-05-18T10:34:48.117Z,3.70
2019-05-18T10:37:15.472Z,4.00
2019-05-18T10:39:42.831Z,3.42
2019-05-18T10:42:10.224Z,4.05
2019-05-18T10:44:37.730Z,3.67
2019-05-18T10:47:05.196Z,3.30
2019-05-18T10:49:32.800Z,3.20
2019-05-18T10:52:00.309Z,3.07
2019-05-18T10:54:27.806Z,4.00
2019-05-18T10:56:55.293Z,3.47
2019-05-18T10:59:22.851Z,3.70
2019-05-18T11:01:50.596Z,3.80
2019-05-18T11:04:18.032Z,3.60
2019-05-18T11:06:45.498Z,4.40
2019-05-18T11:09:14.378Z,4.23
2019-05-18T11:12:02.321Z,3.93
2019-05-18T11:14:38.631Z,3.67
2019-05-18T11:17:06.093Z,3.90
2019-05-18T11:19:33.693Z,4.00
2019-05-18T11:22:01.760Z,3.80
2019-05-18T11:24:30.144Z,3.27
2019-05-18T11:26:58.330Z,3.43
2019-05-18T11:29:31.866Z,4.13
2019-05-18T11:31:59.493Z,4.40
2019-05-18T11:34:26.912Z,3.63
2019-05-18T11:36:54.491Z,3.23
2019-05-18T11:39:22.417Z,3.53
2019-05-18T11:41:50.476Z,3.57
2019-05-18T11:44:18.612Z,4.10
2019-05-18T11:46:46.845Z,5.57
2019-05-18T11:49:15.160Z,4.57
2019-05-18T11:52:05.123Z,4.47
2019-05-18T11:54:33.645Z,4.33
2019-05-18T11:57:02.024Z,3.73
2019-05-18T11:59:29.559Z,3.90
2019-05-18T12:01:57.126Z,4.10
2019-05-18T12:04:24.601Z,3.70
2019-05-18T12:06:52.137Z,3.77
2019-05-18T12:09:19.552Z,3.50
2019-05-18T12:11:47.068Z,3.33
2019-05-18T12:14:14.514Z,4.30
2019-05-18T12:16:42.041Z,3.60
2019-05-18T12:19:09.607Z,3.83
2019-05-18T12:21:37.226Z,3.30
2019-05-18T12:24:14.572Z,3.77
2019-05-18T12:26:34.096Z,3.33
2019-05-18T12:29:01.702Z,3.50
2019-05-18T12:31:29.270Z,3.00
2019-05-18T12:33:57.290Z,3.03
2019-05-18T12:36:24.953Z,3.10
2019-05-18T12:38:52.345Z,3.03
2019-05-18T12:41:28.772Z,3.00
2019-05-18T12:43:56.417Z,2.87
2019-05-18T12:46:24.183Z,3.23
2019-05-18T12:48:54.690Z,2.80
2019-05-18T12:51:22.411Z,3.00
2019-05-18T12:53:51.837Z,2.90
2019-05-18T12:56:19.882Z,3.17
2019-05-18T12:58:47.934Z,2.50
2019-05-18T13:01:15.756Z,2.60
2019-05-18T13:03:43.326Z,2.70
2019-05-18T13:06:10.724Z,3.37
2019-05-18T13:08:49.275Z,2.70
2019-05-18T13:11:26.772Z,3.20
2019-05-18T13:13:54.629Z,2.30
2019-05-18T13:16:22.190Z,2.40
2019-05-18T13:18:49.686Z,2.50
2019-05-18T13:21:17.215Z,2.60
2019-05-18T13:23:44.914Z,2.50
2019-05-18T13:26:12.503Z,2.60
2019-05-18T13:28:42.652Z,2.37
2019-05-18T13:31:10.414Z,2.80
2019-05-18T13:33:37.840Z,2.67
2019-05-18T13:36:05.309Z,2.50
2019-05-18T13:38:32.733Z,2.43
2019-05-18T13:41:00.302Z,2.30
2019-05-18T13:43:27.857Z,2.43
2019-05-18T13:45:55.511Z,2.43
2019-05-18T13:48:22.979Z,2.50
2019-05-18T13:50:50.860Z,2.73
2019-05-18T13:53:18.347Z,2.30
2019-05-18T13:55:45.935Z,2.40
2019-05-18T13:58:13.513Z,2.30
2019-05-18T14:00:40.969Z,2.30
2019-05-18T14:03:09.566Z,2.10
2019-05-18T14:05:37.850Z,2.20
2019-05-18T14:08:05.255Z,2.53
2019-05-18T14:10:32.982Z,2.50
2019-05-18T14:13:00.643Z,2.30
2019-05-18T14:15:28.313Z,2.30
2019-05-18T14:18:01.031Z,2.43
2019-05-18T14:20:28.574Z,2.40
2019-05-18T14:22:56.251Z,2.53
2019-05-18T14:25:24.408Z,2.60
2019-05-18T14:27:52.003Z,2.50
2019-05-18T14:30:21.343Z,2.37
2019-05-18T14:32:52.247Z,2.20
2019-05-18T14:35:26.313Z,2.30
2019-05-18T14:37:53.774Z,2.20
2019-05-18T14:40:21.145Z,2.20
2019-05-18T14:42:48.764Z,2.10
2019-05-18T14:45:16.799Z,2.20
2019-05-18T14:47:44.803Z,2.30
2019-05-18T14:50:13.530Z,2.10
2019-05-18T14:52:41.083Z,3.00
2019-05-18T14:55:08.807Z,2.33
2019-05-18T14:57:36.843Z,2.10
2019-05-18T15:00:05.687Z,2.50
2019-05-18T15:02:33.239Z,2.60
2019-05-18T15:05:00.813Z,2.30
2019-05-18T15:07:28.582Z,2.80
2019-05-18T15:09:58.980Z,2.63
2019-05-18T15:12:26.463Z,2.27
2019-05-18T15:14:53.903Z,2.30
2019-05-18T15:17:21.256Z,2.27
2019-05-18T15:19:48.571Z,2.50
2019-05-18T15:22:15.917Z,2.53
2019-05-18T15:24:43.347Z,2.33
2019-05-18T15:27:10.688Z,2.30
2019-05-18T15:29:38.015Z,2.53
2019-05-18T15:32:05.357Z,2.60
2019-05-18T15:34:32.745Z,2.50
2019-05-18T15:37:00.181Z,2.77
2019-05-18T15:39:27.599Z,2.40
2019-05-18T15:41:55.044Z,2.40
2019-05-18T15:44:22.433Z,2.23
2019-05-18T15:46:49.922Z,2.60
2019-05-18T15:49:17.362Z,2.40
2019-05-18T15:51:44.762Z,2.57
2019-05-18T15:54:12.149Z,2.90
2019-05-18T15:56:39.790Z,2.53
2019-05-18T15:59:07.134Z,2.23
2019-05-18T16:01:34.706Z,2.20
2019-05-18T16:04:02.203Z,2.40
2019-05-18T16:06:29.592Z,2.40
2019-05-18T16:08:57.119Z,2.20
2019-05-18T16:11:24.577Z,2.30
2019-05-18T16:13:52.088Z,2.50
2019-05-18T16:16:19.566Z,2.40
2019-05-18T16:18:47.105Z,2.50
2019-05-18T16:21:14.438Z,2.90
2019-05-18T16:23:42.082Z,2.83
2019-05-18T16:26:21.102Z,2.63
2019-05-18T16:28:38.941Z,2.90
2019-05-18T16:31:06.481Z,2.80
2019-05-18T16:33:33.853Z,2.53
2019-05-18T16:36:01.358Z,2.90
2019-05-18T16:38:28.871Z,2.90
2019-05-18T16:40:56.351Z,2.83
2019-05-18T16:43:23.824Z,2.63
2019-05-18T16:45:51.206Z,2.60
2019-05-18T16:48:18.604Z,2.80
2019-05-18T16:50:46.716Z,3.10
2019-05-18T16:53:14.248Z,2.80
2019-05-18T16:55:41.824Z,2.90
2019-05-18T16:58:09.435Z,2.90
2019-05-18T17:00:37.056Z,2.93
2019-05-18T17:03:04.469Z,2.67
2019-05-18T17:05:31.902Z,2.50
2019-05-18T17:07:59.335Z,2.60
2019-05-18T17:10:26.805Z,2.70
2019-05-18T17:12:54.315Z,2.90
2019-05-18T17:15:21.803Z,5.23
2019-05-18T17:17:49.198Z,3.70
2019-05-18T17:20:16.986Z,2.60
2019-05-18T17:22:44.526Z,3.00
2019-05-18T17:25:12.034Z,3.00
2019-05-18T17:27:39.569Z,2.67
2019-05-18T17:30:07.955Z,2.80
2019-05-18T17:32:35.461Z,3.40
2019-05-18T17:35:03.265Z,4.23
2019-05-18T17:37:30.762Z,3.10
2019-05-18T17:39:58.379Z,3.50
2019-05-18T17:42:25.887Z,3.47
2019-05-18T17:44:53.369Z,4.67
2019-05-18T17:47:20.929Z,3.73
2019-05-18T17:49:48.342Z,3.40
2019-05-18T17:52:15.819Z,3.30
2019-05-18T17:54:43.331Z,2.97
2019-05-18T17:57:10.880Z,3.30
2019-05-18T17:59:38.830Z,3.07
2019-05-18T18:02:06.904Z,3.70
2019-05-18T18:04:34.324Z,3.20
2019-05-18T18:07:02.416Z,3.40
2019-05-18T18:09:32.928Z,3.00
2019-05-18T18:12:00.585Z,3.00
2019-05-18T18:14:28.072Z,3.10
2019-05-18T18:17:33.100Z,2.87
2019-05-18T18:19:48.234Z,2.67
2019-05-18T18:25:33.324Z,3.00
2019-05-18T18:28:00.807Z,3.20
2019-05-18T18:30:28.359Z,4.53
2019-05-18T18:33:04.397Z,4.73
2019-05-18T18:35:54.621Z,4.10
2019-05-18T18:38:22.108Z,3.27
2019-05-18T18:40:49.600Z,3.20
2019-05-18T18:43:17.062Z,3.30
2019-05-18T18:45:44.455Z,3.60
2019-05-18T18:48:11.978Z,3.97
2019-05-18T18:50:39.440Z,3.30
2019-05-18T18:53:06.911Z,3.43
2019-05-18T18:55:34.384Z,3.20
2019-05-18T18:58:01.841Z,3.20
2019-05-18T19:00:29.372Z,3.40
2019-05-18T19:02:56.796Z,3.00
2019-05-18T19:05:24.239Z,3.20
2019-05-18T19:07:51.656Z,3.40
2019-05-18T19:10:19.080Z,3.20
2019-05-18T19:12:46.448Z,3.20
2019-05-18T19:15:14.288Z,3.77
2019-05-18T19:17:41.701Z,3.30
2019-05-18T19:20:09.450Z,3.23
2019-05-18T19:22:36.881Z,3.10
2019-05-18T19:25:04.604Z,3.70
2019-05-18T19:27:32.054Z,3.50
2019-05-18T19:29:59.419Z,3.30
2019-05-18T19:32:26.900Z,3.60
2019-05-18T19:34:54.538Z,3.60
2019-05-18T19:37:22.030Z,3.40
2019-05-18T19:39:49.527Z,3.77
2019-05-18T19:42:17.278Z,4.00
2019-05-18T19:44:44.771Z,3.53
2019-05-18T19:47:12.194Z,3.80
2019-05-18T19:49:39.571Z,4.10
2019-05-18T19:52:09.475Z,3.70
2019-05-18T19:54:36.959Z,3.60
2019-05-18T19:57:04.354Z,3.70
2019-05-18T19:59:34.560Z,3.63
2019-05-18T20:02:22.089Z,3.77
2019-05-18T20:05:06.352Z,3.33
2019-05-18T20:07:21.702Z,3.50
2019-05-18T20:09:52.822Z,3.63
2019-05-18T20:12:19.256Z,3.47
2019-05-18T20:14:46.774Z,3.57
2019-05-18T20:17:14.823Z,3.43
2019-05-18T20:19:42.274Z,3.67
2019-05-18T20:22:09.634Z,3.63
2019-05-18T20:24:37.204Z,3.43
2019-05-18T20:27:05.108Z,4.00
2019-05-18T20:29:32.923Z,3.67
2019-05-18T20:32:00.446Z,3.60
2019-05-18T20:34:27.963Z,3.40
2019-05-18T20:36:55.789Z,3.77
2019-05-18T20:39:23.449Z,4.07
2019-05-18T20:41:51.390Z,4.20
2019-05-18T20:44:19.048Z,3.87
2019-05-18T20:46:47.023Z,4.23
2019-05-18T20:49:14.909Z,3.80
2019-05-18T20:51:42.558Z,3.60
2019-05-18T20:54:10.350Z,3.73
2019-05-18T20:56:38.058Z,4.00
2019-05-18T20:59:05.585Z,3.97
2019-05-18T21:01:34.147Z,4.00
2019-05-18T21:04:01.890Z,3.73
2019-05-18T21:06:29.336Z,3.60
2019-05-18T21:08:56.789Z,3.70
2019-05-18T21:11:24.403Z,3.50
2019-05-18T21:13:52.062Z,3.50
2019-05-18T21:16:19.713Z,3.67
2019-05-18T21:18:47.327Z,4.07
2019-05-18T21:21:15.135Z,4.50
2019-05-18T21:23:42.641Z,3.90
2019-05-18T21:26:10.211Z,4.07
2019-05-18T21:28:37.686Z,3.90
2019-05-18T21:31:05.114Z,3.73
2019-05-18T21:33:32.564Z,3.83
2019-05-18T21:36:00.033Z,3.80
2019-05-18T21:38:27.647Z,4.20
2019-05-18T21:40:55.128Z,4.10
2019-05-18T21:43:22.952Z,3.70
2019-05-18T21:45:50.657Z,3.73
2019-05-18T21:48:18.112Z,3.77
2019-05-18T21:50:45.596Z,3.97
2019-05-18T21:53:12.936Z,4.00
2019-05-18T21:55:40.460Z,4.03
2019-05-18T21:58:07.946Z,4.07
2019-05-18T22:00:35.735Z,3.90
2019-05-18T22:03:03.404Z,3.93
2019-05-18T22:05:31.206Z,3.70
2019-05-18T22:07:59.216Z,3.80
2019-05-18T22:10:26.763Z,3.83
2019-05-18T22:12:54.816Z,3.80
2019-05-18T22:15:22.323Z,4.43
2019-05-18T22:18:04.733Z,3.83
2019-05-18T22:20:33.251Z,3.60
2019-05-18T22:23:00.744Z,4.13
2019-05-18T22:25:30.835Z,4.03
2019-05-18T22:27:58.226Z,4.10
2019-05-18T22:30:25.673Z,4.03
2019-05-18T22:32:53.095Z,5.40
2019-05-18T22:35:20.760Z,4.30
2019-05-18T22:37:48.259Z,4.53
2019-05-18T22:40:16.211Z,4.10
2019-05-18T22:42:43.757Z,4.37
2019-05-18T22:45:11.398Z,4.27
2019-05-18T22:47:39.000Z,4.20
2019-05-18T22:50:06.803Z,4.10
2019-05-18T22:52:34.369Z,4.30
2019-05-18T22:55:01.856Z,3.93
2019-05-18T22:57:29.364Z,4.07
2019-05-18T22:59:56.929Z,4.40
2019-05-18T23:02:24.416Z,4.30
2019-05-18T23:04:52.081Z,4.20
2019-05-18T23:07:19.677Z,4.07
2019-05-18T23:09:47.234Z,4.10
2019-05-18T23:12:14.783Z,4.37
2019-05-18T23:14:42.373Z,4.50
2019-05-18T23:19:43.553Z,4.33
2019-05-18T23:22:11.027Z,4.50
2019-05-18T23:24:38.481Z,4.10
2019-05-18T23:27:05.890Z,4.30
2019-05-18T23:29:33.429Z,5.20
2019-05-18T23:32:00.978Z,5.33
2019-05-18T23:34:28.425Z,5.17
2019-05-18T23:36:56.371Z,5.43
2019-05-18T23:39:23.968Z,5.73
2019-05-18T23:41:51.427Z,5.10
2019-05-18T23:44:18.996Z,4.63
2019-05-18T23:46:46.427Z,5.13
2019-05-18T23:49:13.857Z,4.90
2019-05-18T23:51:41.319Z,4.40
2019-05-18T23:54:08.710Z,4.77
2019-05-18T23:56:36.235Z,5.00
2019-05-18T23:59:03.778Z,4.97
